Mehmet Bey — 9HUD6 — position and weather

sailwx.info

Track history (hours):
 
Tides and Currents Weather Stations Pressure Air Temp Water Temp Dewpoint Dewpoint Depression Visibility Wind Speed Wind Dir Waves Ship Positions

Mehmet Bey

Last reported at 2015-Aug-02 07:30 UTC. Time now 2015-Aug-03 23:23 UTC.
Position N 37°40' E 025°50'.

Length 131 m; draft 5.2 m.

Type: Cargo ship. MMSI: 248864000.

Date/timePositionNaut miles runAvg speedWind from/ knotsBaromVisibWave heightAir tempDewpointWater temp
2015-Aug-02 07:30N 37°40' E 025°50'8 8.3
2015-Aug-02 06:33N 37°32' E 025°51'7 7.0
2015-Aug-02 05:33N 37°25' E 025°54'7 6.5
2015-Aug-02 04:33N 37°19' E 025°58'9 8.2
2015-Aug-02 03:27N 37°11' E 026°03'17 8.8
2015-Aug-02 01:33N 36°57' E 026°13'9 8.1
2015-Aug-02 00:30N 36°51' E 026°21'8 7.8
2015-Aug-01 23:32N 36°45' E 026°27'18 7.6
2015-Aug-01 21:08N 36°33' E 026°44'4 7.4
2015-Aug-01 20:33N 36°30' E 026°48'7 7.4
2015-Aug-01 19:33N 36°25' E 026°54'9 7.8
2015-Aug-01 18:26N 36°19' E 027°02'31 8.0
2015-Aug-01 14:33N 35°58' E 027°30'9 7.3
2015-Aug-01 13:20N 35°51' E 027°38'9 7.4
2015-Aug-01 12:05N 35°45' E 027°47'189 7.0
2015-Jul-31 09:09N 34°15' E 031°09'6 8.2
2015-Jul-31 08:26N 34°12' E 031°15'34 8.6
2015-Jul-31 04:26N 33°55' E 031°51'8 8.7
2015-Jul-31 03:33N 33°52' E 031°59'9 8.7
2015-Jul-31 02:33N 33°47' E 032°09'9 9.1
2015-Jul-31 01:33N 33°43' E 032°18'9 9.4
2015-Jul-31 00:33N 33°39' E 032°28'10 9.3
2015-Jul-30 23:31N 33°34' E 032°38'9 9.6
2015-Jul-30 22:33N 33°29' E 032°48'10 9.6
2015-Jul-30 21:33N 33°25' E 032°58'11 9.5
2015-Jul-30 20:26N 33°20' E 033°09'38 8.9
2015-Jul-30 16:10N 33°01' E 033°49'3 1.0
2015-Jul-30 13:31N 33°02' E 033°46'1 1.2
2015-Jul-30 12:24N 33°02' E 033°44'1 1.2
2015-Jul-30 11:33N 33°02' E 033°43'1 1.3
2015-Jul-30 10:33N 33°01' E 033°42'1 1.2
2015-Jul-30 09:33N 33°01' E 033°41'1 1.2
2015-Jul-30 08:23N 33°00' E 033°39'1 1.1
2015-Jul-30 07:23N 32°60' E 033°38'1 1.1
2015-Jul-30 06:34N 32°59' E 033°37'1 1.2
2015-Jul-30 05:33N 32°59' E 033°36'1 1.2
2015-Jul-30 04:33N 32°58' E 033°35'1 1.1
2015-Jul-30 03:33N 32°57' E 033°33'1 1.1
2015-Jul-30 02:33N 32°57' E 033°32'1 1.1
2015-Jul-30 01:33N 32°56' E 033°31'1 1.1
2015-Jul-30 00:33N 32°55' E 033°30'1 0.8
2015-Jul-29 23:33N 32°55' E 033°30'1 0.6
2015-Jul-29 22:33N 32°54' E 033°29'0 0.4
2015-Jul-29 21:33N 32°54' E 033°29'0 0.4
2015-Jul-29 20:32N 32°55' E 033°28'0 0.4
2015-Jul-29 19:33N 32°55' E 033°28'1 0.6
2015-Jul-29 18:33N 32°55' E 033°28'1 0.7
2015-Jul-29 17:33N 32°56' E 033°27'1 0.8
2015-Jul-29 16:33N 32°57' E 033°27'1 1.0
2015-Jul-29 15:33N 32°58' E 033°26'1 1.0
2015-Jul-29 14:33N 32°58' E 033°25'1 0.9
2015-Jul-29 13:27N 32°59' E 033°24'1 0.9
2015-Jul-29 12:33N 32°59' E 033°24'1 0.9
2015-Jul-29 11:21N 32°60' E 033°22'1 0.9
2015-Jul-29 10:33N 32°60' E 033°21'1 0.9
2015-Jul-29 09:33N 32°60' E 033°20'1 0.9
2015-Jul-29 08:32N 32°60' E 033°19'1 0.8
2015-Jul-29 07:33N 32°60' E 033°18'1 0.7
2015-Jul-29 06:33N 32°59' E 033°18'1 0.7
2015-Jul-29 05:33N 32°59' E 033°17'1 0.7
2015-Jul-29 04:31N 32°59' E 033°16'1 0.7
2015-Jul-29 03:20N 32°59' E 033°15'1 0.5
2015-Jul-29 00:33N 32°59' E 033°13'0 0.4
2015-Jul-28 23:34N 32°60' E 033°13'0 0.3
2015-Jul-28 22:25N 32°60' E 033°13'1 0.4
2015-Jul-28 21:09N 33°00' E 033°12'0 0.6
2015-Jul-28 20:33N 33°01' E 033°12'1 0.7
2015-Jul-28 19:33N 33°01' E 033°12'2 0.9
2015-Jul-28 17:33N 33°03' E 033°12'1 1.0
2015-Jul-28 16:33N 33°04' E 033°12'1 1.2
2015-Jul-28 15:33N 33°05' E 033°11'1 1.3
2015-Jul-28 14:33N 33°07' E 033°11'1 1.2
2015-Jul-28 13:33N 33°08' E 033°10'1 1.3
2015-Jul-28 12:33N 33°09' E 033°09'2 1.5
2015-Jul-28 11:33N 33°10' E 033°09'8 7.8
2015-Jul-28 10:33N 33°07' E 033°18'9 9.1
2015-Jul-28 09:33N 33°04' E 033°28'28 5.6
2015-Jul-28 04:32N 32°54' E 033°60'1 1.1
2015-Jul-28 03:33N 32°54' E 033°58'2 0.9
2015-Jul-28 01:30N 32°54' E 033°56'2 0.8
2015-Jul-27 22:28N 32°55' E 033°53'1 0.9
2015-Jul-27 21:33N 32°55' E 033°53'1 0.9
2015-Jul-27 20:34N 32°56' E 033°52'1 1.1
2015-Jul-27 19:34N 32°57' E 033°51'1 1.1
2015-Jul-27 18:33N 32°57' E 033°50'1 1.2
2015-Jul-27 17:33N 32°58' E 033°49'1 1.3
2015-Jul-27 16:33N 32°59' E 033°48'1 1.4
2015-Jul-27 15:34N 33°00' E 033°47'2 1.5
2015-Jul-27 14:33N 33°01' E 033°46'2 1.5
2015-Jul-27 13:33N 33°02' E 033°44'2 1.5
2015-Jul-27 12:33N 33°03' E 033°43'1 1.5
2015-Jul-27 11:34N 33°04' E 033°41'1 1.5
2015-Jul-27 10:34N 33°05' E 033°40'4 1.1
2015-Jul-27 06:33N 33°06' E 033°35'1 1.0
2015-Jul-27 05:31N 33°06' E 033°34'2 0.8
2015-Jul-27 03:33N 33°07' E 033°32'3 1.0
2015-Jul-27 00:31N 33°07' E 033°28'1 1.0
2015-Jul-26 23:33N 33°07' E 033°27'1 1.0
2015-Jul-26 22:33N 33°07' E 033°26'1 1.0
2015-Jul-26 21:32N 33°08' E 033°25'1 1.1
2015-Jul-26 20:32N 33°08' E 033°23'1 1.2
2015-Jul-26 19:33N 33°08' E 033°22'1 1.2
2015-Jul-26 18:33N 33°08' E 033°21'1 1.3
2015-Jul-26 17:31N 33°08' E 033°19'2 1.4
2015-Jul-26 16:20N 33°09' E 033°17'1 1.4
2015-Jul-26 15:23N 33°09' E 033°15'1 1.4
2015-Jul-26 14:30N 33°09' E 033°14'1 1.4
2015-Jul-26 13:32N 33°09' E 033°12'1 1.2
2015-Jul-26 12:33N 33°09' E 033°11'14 7.2
2015-Jul-26 10:32N 32°56' E 033°18'9 8.1
2015-Jul-26 09:28N 32°48' E 033°24'22 7.1
2015-Jul-26 06:27N 32°29' E 033°36'11 2.3
2015-Jul-26 01:30N 32°19' E 033°39'1 0.5
2015-Jul-25 23:30N 32°19' E 033°38'1 0.5
2015-Jul-25 22:26N 32°20' E 033°38'1 0.6
2015-Jul-25 21:33N 32°20' E 033°38'1 0.8
2015-Jul-25 20:32N 32°21' E 033°39'1 1.1
2015-Jul-25 19:32N 32°22' E 033°39'1 1.4
2015-Jul-25 18:33N 32°23' E 033°40'2 1.7
2015-Jul-25 17:34N 32°25' E 033°40'2 1.8
2015-Jul-25 16:34N 32°27' E 033°40'2 1.7
2015-Jul-25 15:26N 32°29' E 033°40'1 1.6
2015-Jul-25 14:32N 32°30' E 033°39'1 1.5
2015-Jul-25 13:33N 32°31' E 033°38'1 1.4
2015-Jul-25 12:33N 32°32' E 033°37'1 1.5
2015-Jul-25 11:34N 32°33' E 033°36'2 1.5
2015-Jul-25 10:22N 32°34' E 033°34'3 1.3
2015-Jul-25 08:28N 32°36' E 033°31'1 1.3
2015-Jul-25 07:33N 32°36' E 033°30'1 1.3
2015-Jul-25 06:33N 32°37' E 033°29'1 1.2
2015-Jul-25 05:33N 32°37' E 033°27'6 1.2
2015-Jul-25 00:33N 32°37' E 033°20'1 0.9
2015-Jul-24 23:33N 32°37' E 033°19'0 0.2
2015-Jul-24 22:05N 32°37' E 033°19'0 0.5
2015-Jul-24 21:33N 32°38' E 033°19'1 0.7
2015-Jul-24 20:33N 32°38' E 033°19'2 0.9
2015-Jul-24 18:25N 32°39' E 033°21'7 8.3
2015-Jul-24 17:33N 32°33' E 033°26'9 8.9
2015-Jul-24 16:33N 32°26' E 033°33'9 8.8
2015-Jul-24 15:33N 32°19' E 033°40'9 8.7
2015-Jul-24 14:33N 32°13' E 033°46'8 8.4
2015-Jul-24 13:33N 32°07' E 033°54'9 8.7
2015-Jul-24 12:33N 32°03' E 034°03'9 8.7
2015-Jul-24 11:33N 31°60' E 034°12'9 8.7
2015-Jul-24 10:33N 31°56' E 034°22'9 8.7
2015-Jul-24 09:33N 31°53' E 034°31'7 6.9
2015-Jul-24 08:33N 31°50' E 034°38'0 0.3
2015-Jul-24 07:27N 31°50' E 034°39'0 0.0
2015-Jul-24 06:33N 31°50' E 034°39'0 0.0
2015-Jul-24 05:33N 31°50' E 034°39'0 0.0
2015-Jul-24 04:33N 31°50' E 034°39'0 0.0
2015-Jul-24 03:33N 31°50' E 034°39'0 0.0
2015-Jul-24 02:33N 31°50' E 034°39'0 0.0
2015-Jul-24 01:31N 31°50' E 034°39'0 0.0
2015-Jul-23 23:25N 31°50' E 034°39'0 0.0
2015-Jul-23 22:31N 31°50' E 034°39'0 0.0
2015-Jul-23 21:31N 31°50' E 034°39'0 0.0
2015-Jul-23 20:31N 31°50' E 034°39'0 0.0
2015-Jul-23 15:25N 31°50' E 034°39'0 0.0
2015-Jul-23 14:19N 31°50' E 034°39'0 0.0
2015-Jul-23 13:28N 31°50' E 034°39'0 0.0
2015-Jul-23 10:27N 31°50' E 034°39'  
Track history (hours):
 
Tides and Currents Weather Stations Pressure Air Temp Water Temp Dewpoint Dewpoint Depression Visibility Wind Speed Wind Dir Waves Ship Positions

Mehmet Bey

Last reported at 2015-Aug-02 07:30 UTC. Time now 2015-Aug-03 23:23 UTC.
Position N 37°40' E 025°50'.

Length 131 m; draft 5.2 m.

Type: Cargo ship. MMSI: 248864000.

Date/timePositionNaut miles runAvg speedWind from/ knotsBaromVisibWave heightAir tempDewpointWater temp
2015-Aug-02 07:30N 37°40' E 025°50'8 8.3
2015-Aug-02 06:33N 37°32' E 025°51'7 7.0
2015-Aug-02 05:33N 37°25' E 025°54'7 6.5
2015-Aug-02 04:33N 37°19' E 025°58'9 8.2
2015-Aug-02 03:27N 37°11' E 026°03'17 8.8
2015-Aug-02 01:33N 36°57' E 026°13'9 8.1
2015-Aug-02 00:30N 36°51' E 026°21'8 7.8
2015-Aug-01 23:32N 36°45' E 026°27'18 7.6
2015-Aug-01 21:08N 36°33' E 026°44'4 7.4
2015-Aug-01 20:33N 36°30' E 026°48'7 7.4
2015-Aug-01 19:33N 36°25' E 026°54'9 7.8
2015-Aug-01 18:26N 36°19' E 027°02'31 8.0
2015-Aug-01 14:33N 35°58' E 027°30'9 7.3
2015-Aug-01 13:20N 35°51' E 027°38'9 7.4
2015-Aug-01 12:05N 35°45' E 027°47'189 7.0
2015-Jul-31 09:09N 34°15' E 031°09'6 8.2
2015-Jul-31 08:26N 34°12' E 031°15'34 8.6
2015-Jul-31 04:26N 33°55' E 031°51'8 8.7
2015-Jul-31 03:33N 33°52' E 031°59'9 8.7
2015-Jul-31 02:33N 33°47' E 032°09'9 9.1
2015-Jul-31 01:33N 33°43' E 032°18'9 9.4
2015-Jul-31 00:33N 33°39' E 032°28'10 9.3
2015-Jul-30 23:31N 33°34' E 032°38'9 9.6
2015-Jul-30 22:33N 33°29' E 032°48'10 9.6
2015-Jul-30 21:33N 33°25' E 032°58'11 9.5
2015-Jul-30 20:26N 33°20' E 033°09'38 8.9
2015-Jul-30 16:10N 33°01' E 033°49'3 1.0
2015-Jul-30 13:31N 33°02' E 033°46'1 1.2
2015-Jul-30 12:24N 33°02' E 033°44'1 1.2
2015-Jul-30 11:33N 33°02' E 033°43'1 1.3
2015-Jul-30 10:33N 33°01' E 033°42'1 1.2
2015-Jul-30 09:33N 33°01' E 033°41'1 1.2
2015-Jul-30 08:23N 33°00' E 033°39'1 1.1
2015-Jul-30 07:23N 32°60' E 033°38'1 1.1
2015-Jul-30 06:34N 32°59' E 033°37'1 1.2
2015-Jul-30 05:33N 32°59' E 033°36'1 1.2
2015-Jul-30 04:33N 32°58' E 033°35'1 1.1
2015-Jul-30 03:33N 32°57' E 033°33'1 1.1
2015-Jul-30 02:33N 32°57' E 033°32'1 1.1
2015-Jul-30 01:33N 32°56' E 033°31'1 1.1
2015-Jul-30 00:33N 32°55' E 033°30'1 0.8
2015-Jul-29 23:33N 32°55' E 033°30'1 0.6
2015-Jul-29 22:33N 32°54' E 033°29'0 0.4
2015-Jul-29 21:33N 32°54' E 033°29'0 0.4
2015-Jul-29 20:32N 32°55' E 033°28'0 0.4
2015-Jul-29 19:33N 32°55' E 033°28'1 0.6
2015-Jul-29 18:33N 32°55' E 033°28'1 0.7
2015-Jul-29 17:33N 32°56' E 033°27'1 0.8
2015-Jul-29 16:33N 32°57' E 033°27'1 1.0
2015-Jul-29 15:33N 32°58' E 033°26'1 1.0
2015-Jul-29 14:33N 32°58' E 033°25'1 0.9
2015-Jul-29 13:27N 32°59' E 033°24'1 0.9
2015-Jul-29 12:33N 32°59' E 033°24'1 0.9
2015-Jul-29 11:21N 32°60' E 033°22'1 0.9
2015-Jul-29 10:33N 32°60' E 033°21'1 0.9
2015-Jul-29 09:33N 32°60' E 033°20'1 0.9
2015-Jul-29 08:32N 32°60' E 033°19'1 0.8
2015-Jul-29 07:33N 32°60' E 033°18'1 0.7
2015-Jul-29 06:33N 32°59' E 033°18'1 0.7
2015-Jul-29 05:33N 32°59' E 033°17'1 0.7
2015-Jul-29 04:31N 32°59' E 033°16'1 0.7
2015-Jul-29 03:20N 32°59' E 033°15'1 0.5
2015-Jul-29 00:33N 32°59' E 033°13'0 0.4
2015-Jul-28 23:34N 32°60' E 033°13'0 0.3
2015-Jul-28 22:25N 32°60' E 033°13'1 0.4
2015-Jul-28 21:09N 33°00' E 033°12'0 0.6
2015-Jul-28 20:33N 33°01' E 033°12'1 0.7
2015-Jul-28 19:33N 33°01' E 033°12'2 0.9
2015-Jul-28 17:33N 33°03' E 033°12'1 1.0
2015-Jul-28 16:33N 33°04' E 033°12'1 1.2
2015-Jul-28 15:33N 33°05' E 033°11'1 1.3
2015-Jul-28 14:33N 33°07' E 033°11'1 1.2
2015-Jul-28 13:33N 33°08' E 033°10'1 1.3
2015-Jul-28 12:33N 33°09' E 033°09'2 1.5
2015-Jul-28 11:33N 33°10' E 033°09'8 7.8
2015-Jul-28 10:33N 33°07' E 033°18'9 9.1
2015-Jul-28 09:33N 33°04' E 033°28'28 5.6
2015-Jul-28 04:32N 32°54' E 033°60'1 1.1
2015-Jul-28 03:33N 32°54' E 033°58'2 0.9
2015-Jul-28 01:30N 32°54' E 033°56'2 0.8
2015-Jul-27 22:28N 32°55' E 033°53'1 0.9
2015-Jul-27 21:33N 32°55' E 033°53'1 0.9
2015-Jul-27 20:34N 32°56' E 033°52'1 1.1
2015-Jul-27 19:34N 32°57' E 033°51'1 1.1
2015-Jul-27 18:33N 32°57' E 033°50'1 1.2
2015-Jul-27 17:33N 32°58' E 033°49'1 1.3
2015-Jul-27 16:33N 32°59' E 033°48'1 1.4
2015-Jul-27 15:34N 33°00' E 033°47'2 1.5
2015-Jul-27 14:33N 33°01' E 033°46'2 1.5
2015-Jul-27 13:33N 33°02' E 033°44'2 1.5
2015-Jul-27 12:33N 33°03' E 033°43'1 1.5
2015-Jul-27 11:34N 33°04' E 033°41'1 1.5
2015-Jul-27 10:34N 33°05' E 033°40'4 1.1
2015-Jul-27 06:33N 33°06' E 033°35'1 1.0
2015-Jul-27 05:31N 33°06' E 033°34'2 0.8
2015-Jul-27 03:33N 33°07' E 033°32'3 1.0
2015-Jul-27 00:31N 33°07' E 033°28'1 1.0
2015-Jul-26 23:33N 33°07' E 033°27'1 1.0
2015-Jul-26 22:33N 33°07' E 033°26'1 1.0
2015-Jul-26 21:32N 33°08' E 033°25'1 1.1
2015-Jul-26 20:32N 33°08' E 033°23'1 1.2
2015-Jul-26 19:33N 33°08' E 033°22'1 1.2
2015-Jul-26 18:33N 33°08' E 033°21'1 1.3
2015-Jul-26 17:31N 33°08' E 033°19'2 1.4
2015-Jul-26 16:20N 33°09' E 033°17'1 1.4
2015-Jul-26 15:23N 33°09' E 033°15'1 1.4
2015-Jul-26 14:30N 33°09' E 033°14'1 1.4
2015-Jul-26 13:32N 33°09' E 033°12'1 1.2
2015-Jul-26 12:33N 33°09' E 033°11'14 7.2
2015-Jul-26 10:32N 32°56' E 033°18'9 8.1
2015-Jul-26 09:28N 32°48' E 033°24'22 7.1
2015-Jul-26 06:27N 32°29' E 033°36'11 2.3
2015-Jul-26 01:30N 32°19' E 033°39'1 0.5
2015-Jul-25 23:30N 32°19' E 033°38'1 0.5
2015-Jul-25 22:26N 32°20' E 033°38'1 0.6
2015-Jul-25 21:33N 32°20' E 033°38'1 0.8
2015-Jul-25 20:32N 32°21' E 033°39'1 1.1
2015-Jul-25 19:32N 32°22' E 033°39'1 1.4
2015-Jul-25 18:33N 32°23' E 033°40'2 1.7
2015-Jul-25 17:34N 32°25' E 033°40'2 1.8
2015-Jul-25 16:34N 32°27' E 033°40'2 1.7
2015-Jul-25 15:26N 32°29' E 033°40'1 1.6
2015-Jul-25 14:32N 32°30' E 033°39'1 1.5
2015-Jul-25 13:33N 32°31' E 033°38'1 1.4
2015-Jul-25 12:33N 32°32' E 033°37'1 1.5
2015-Jul-25 11:34N 32°33' E 033°36'2 1.5
2015-Jul-25 10:22N 32°34' E 033°34'3 1.3
2015-Jul-25 08:28N 32°36' E 033°31'1 1.3
2015-Jul-25 07:33N 32°36' E 033°30'1 1.3
2015-Jul-25 06:33N 32°37' E 033°29'1 1.2
2015-Jul-25 05:33N 32°37' E 033°27'6 1.2
2015-Jul-25 00:33N 32°37' E 033°20'1 0.9
2015-Jul-24 23:33N 32°37' E 033°19'0 0.2
2015-Jul-24 22:05N 32°37' E 033°19'0 0.5
2015-Jul-24 21:33N 32°38' E 033°19'1 0.7
2015-Jul-24 20:33N 32°38' E 033°19'2 0.9
2015-Jul-24 18:25N 32°39' E 033°21'7 8.3
2015-Jul-24 17:33N 32°33' E 033°26'9 8.9
2015-Jul-24 16:33N 32°26' E 033°33'9 8.8
2015-Jul-24 15:33N 32°19' E 033°40'9 8.7
2015-Jul-24 14:33N 32°13' E 033°46'8 8.4
2015-Jul-24 13:33N 32°07' E 033°54'9 8.7
2015-Jul-24 12:33N 32°03' E 034°03'9 8.7
2015-Jul-24 11:33N 31°60' E 034°12'9 8.7
2015-Jul-24 10:33N 31°56' E 034°22'9 8.7
2015-Jul-24 09:33N 31°53' E 034°31'7 6.9
2015-Jul-24 08:33N 31°50' E 034°38'0 0.3
2015-Jul-24 07:27N 31°50' E 034°39'0 0.0
2015-Jul-24 06:33N 31°50' E 034°39'0 0.0
2015-Jul-24 05:33N 31°50' E 034°39'0 0.0
2015-Jul-24 04:33N 31°50' E 034°39'0 0.0
2015-Jul-24 03:33N 31°50' E 034°39'0 0.0
2015-Jul-24 02:33N 31°50' E 034°39'0 0.0
2015-Jul-24 01:31N 31°50' E 034°39'0 0.0
2015-Jul-23 23:25N 31°50' E 034°39'0 0.0
2015-Jul-23 22:31N 31°50' E 034°39'0 0.0
2015-Jul-23 21:31N 31°50' E 034°39'0 0.0
2015-Jul-23 20:31N 31°50' E 034°39'0 0.0
2015-Jul-23 15:25N 31°50' E 034°39'0 0.0
2015-Jul-23 14:19N 31°50' E 034°39'0 0.0
2015-Jul-23 13:28N 31°50' E 034°39'0 0.0
2015-Jul-23 10:27N 31°50' E 034°39'  

Dump ship's entire track history